createdAt,value
2022-11-29T00:01:17.923Z,98266.31
2022-11-29T00:03:45.096Z,98266.03
2022-11-29T00:06:18.251Z,98262.53
2022-11-29T00:08:46.114Z,98255.50
2022-11-29T00:11:36.009Z,98257.25
2022-11-29T00:14:03.180Z,98266.56
2022-11-29T00:16:30.156Z,98272.63
2022-11-29T00:18:57.049Z,98272.47
2022-11-29T00:21:23.963Z,98264.84
2022-11-29T00:23:51.318Z,98270.03
2022-11-29T00:26:18.266Z,98272.63
2022-11-29T00:28:45.165Z,98270.81
2022-11-29T00:31:19.512Z,98269.03
2022-11-29T00:33:46.835Z,98272.63
2022-11-29T00:36:14.379Z,98266.56
2022-11-29T00:38:41.934Z,98267.28
2022-11-29T00:41:10.047Z,98264.69
2022-11-29T00:43:36.987Z,98265.63
2022-11-29T00:46:04.506Z,98263.75
2022-11-29T00:48:31.969Z,98265.53
2022-11-29T00:50:58.883Z,98273.41
2022-11-29T00:53:25.850Z,98264.69
2022-11-29T00:55:53.953Z,98261.38
2022-11-29T00:58:21.514Z,98258.84
2022-11-29T01:00:48.870Z,98263.03
2022-11-29T01:03:17.103Z,98260.34
2022-11-29T01:05:45.396Z,98265.44
2022-11-29T01:08:13.314Z,98244.69
2022-11-29T01:10:40.285Z,98256.72
2022-11-29T01:13:07.868Z,98248.31
2022-11-29T01:15:35.309Z,98257.75
2022-11-29T01:18:02.253Z,98264.69
2022-11-29T01:20:29.172Z,98258.47
2022-11-29T01:22:56.167Z,98256.66
2022-11-29T01:25:23.123Z,98264.44
2022-11-29T01:27:50.093Z,98255.16
2022-11-29T01:30:17.065Z,98241.34
2022-11-29T01:32:43.953Z,98246.34
2022-11-29T01:35:10.989Z,98246.44
2022-11-29T01:37:37.906Z,98249.72
2022-11-29T01:40:05.563Z,98238.66
2022-11-29T01:42:32.446Z,98238.66
2022-11-29T01:45:17.457Z,98229.13
2022-11-29T01:47:47.404Z,98244.78
2022-11-29T01:50:14.818Z,98241.94
2022-11-29T01:52:42.323Z,98237.69
2022-11-29T01:55:10.241Z,98230.63
2022-11-29T01:57:40.399Z,98232.19
2022-11-29T02:00:15.534Z,98221.00
2022-11-29T02:02:47.273Z,98224.34
2022-11-29T02:05:17.269Z,98222.13
2022-11-29T02:07:48.418Z,98228.03
2022-11-29T02:10:16.677Z,98220.84
2022-11-29T02:12:52.613Z,98212.47
2022-11-29T02:15:22.647Z,98206.25
2022-11-29T02:18:14.804Z,98202.94
2022-11-29T02:20:41.693Z,98212.84
2022-11-29T02:23:34.282Z,98213.41
2022-11-29T02:26:06.669Z,98219.44
2022-11-29T02:29:09.148Z,98213.56
2022-11-29T02:32:18.516Z,98222.53
2022-11-29T02:35:00.167Z,98214.84
2022-11-29T02:37:35.748Z,98213.19
2022-11-29T02:40:28.934Z,98213.44
2022-11-29T02:43:01.545Z,98217.72
2022-11-29T02:45:46.854Z,98216.88
2022-11-29T02:48:41.236Z,98210.19
2022-11-29T02:51:24.162Z,98209.19
2022-11-29T02:54:06.569Z,98211.53
2022-11-29T02:56:54.011Z,98219.00
2022-11-29T02:59:39.305Z,98225.81
2022-11-29T03:02:21.529Z,98226.72
2022-11-29T03:05:31.083Z,98235.25
2022-11-29T03:08:22.449Z,98236.16
2022-11-29T03:11:07.342Z,98225.13
2022-11-29T03:13:48.740Z,98234.50
2022-11-29T03:16:43.292Z,98238.09
2022-11-29T03:19:35.303Z,98233.75
2022-11-29T03:22:28.468Z,98224.28
2022-11-29T03:25:03.516Z,98229.31
2022-11-29T03:27:47.699Z,98235.25
2022-11-29T03:30:17.990Z,98221.72
2022-11-29T03:33:14.667Z,98217.72
2022-11-29T03:35:59.276Z,98221.31
2022-11-29T03:38:57.945Z,98224.56
2022-11-29T03:41:33.004Z,98225.47
2022-11-29T03:44:18.400Z,98227.09
2022-11-29T03:46:55.948Z,98227.97
2022-11-29T03:49:32.426Z,98222.16
2022-11-29T03:52:15.308Z,98226.31
2022-11-29T03:54:57.375Z,98232.28
2022-11-29T03:57:51.265Z,98235.59
2022-11-29T04:00:19.132Z,98242.53
2022-11-29T04:03:23.378Z,98241.44
2022-11-29T04:06:33.054Z,98238.09
2022-11-29T04:09:08.665Z,98242.63
2022-11-29T04:11:59.937Z,98242.28
2022-11-29T04:14:51.675Z,98257.66
2022-11-29T04:17:46.388Z,98245.53
2022-11-29T04:20:50.274Z,98248.94
2022-11-29T04:23:38.685Z,98248.94
2022-11-29T04:26:35.061Z,98259.25
2022-11-29T04:29:30.482Z,98261.84
2022-11-29T04:32:12.095Z,98271.38
2022-11-29T04:34:57.407Z,98271.38
2022-11-29T04:37:47.408Z,98268.03
2022-11-29T04:40:38.627Z,98267.28
2022-11-29T04:43:29.476Z,98268.03
2022-11-29T04:46:20.488Z,98263.41
2022-11-29T04:49:04.058Z,98257.50
2022-11-29T04:51:45.830Z,98255.00
2022-11-29T04:54:34.741Z,98256.56
2022-11-29T04:57:20.132Z,98257.50
2022-11-29T05:00:12.917Z,98250.63
2022-11-29T05:02:56.044Z,98252.22
2022-11-29T05:05:48.688Z,98265.00
2022-11-29T05:08:53.071Z,98265.84
2022-11-29T05:11:35.040Z,98266.00
2022-11-29T05:14:27.491Z,98271.03
2022-11-29T05:17:14.695Z,98270.47
2022-11-29T05:20:17.982Z,98272.84
2022-11-29T05:22:53.189Z,98282.34
2022-11-29T05:25:38.784Z,98276.38
2022-11-29T05:28:14.909Z,98273.53
2022-11-29T05:31:15.322Z,98279.38
2022-11-29T05:33:45.222Z,98275.16
2022-11-29T05:36:33.536Z,98277.84
2022-11-29T05:39:30.295Z,98285.16
2022-11-29T05:42:25.167Z,98277.19
2022-11-29T05:45:18.292Z,98279.88
2022-11-29T05:48:09.776Z,98289.22
2022-11-29T05:51:02.997Z,98290.06
2022-11-29T05:54:07.978Z,98288.63
2022-11-29T05:56:59.249Z,98277.53
2022-11-29T05:59:30.637Z,98282.72
2022-11-29T06:02:27.684Z,98289.53
2022-11-29T06:05:17.419Z,98288.34
2022-11-29T06:07:58.743Z,98293.34
2022-11-29T06:10:32.898Z,98289.66
2022-11-29T06:13:02.845Z,98292.69
2022-11-29T06:16:03.524Z,98295.66
2022-11-29T06:18:53.312Z,98303.94
2022-11-29T06:21:37.503Z,98304.94
2022-11-29T06:24:36.262Z,98302.88
2022-11-29T06:27:41.395Z,98300.84
2022-11-29T06:30:12.252Z,98314.03
2022-11-29T06:32:40.453Z,98305.75
2022-11-29T06:35:19.251Z,98315.22
2022-11-29T06:37:51.000Z,98314.84
2022-11-29T06:40:18.033Z,98320.78
2022-11-29T06:42:45.001Z,98327.94
2022-11-29T06:45:15.504Z,98320.56
2022-11-29T06:48:19.526Z,98321.88
2022-11-29T06:51:11.149Z,98330.53
2022-11-29T06:53:56.314Z,98326.06
2022-11-29T06:56:50.196Z,98332.19
2022-11-29T06:59:54.864Z,98332.19
2022-11-29T07:02:27.704Z,98334.59
2022-11-29T07:05:09.961Z,98328.16
2022-11-29T07:07:37.397Z,98325.97
2022-11-29T07:10:08.327Z,98339.72
2022-11-29T07:12:39.378Z,98332.25
2022-11-29T07:15:07.025Z,98335.72
2022-11-29T07:17:47.949Z,98335.53
2022-11-29T07:20:27.247Z,98330.09
2022-11-29T07:23:12.706Z,98325.34
2022-11-29T07:26:21.901Z,98328.00
2022-11-29T07:29:07.720Z,98332.91
2022-11-29T07:32:00.664Z,98331.78
2022-11-29T07:34:45.994Z,98320.56
2022-11-29T07:37:22.267Z,98321.25
2022-11-29T07:39:59.525Z,98317.25
2022-11-29T07:42:31.518Z,98321.13
2022-11-29T07:44:58.371Z,98320.97
2022-11-29T07:47:25.530Z,98317.81
2022-11-29T07:49:52.488Z,98317.97
2022-11-29T07:52:19.451Z,98313.25
2022-11-29T07:54:46.633Z,98316.25
2022-11-29T07:57:13.876Z,98322.44
2022-11-29T07:59:40.733Z,98324.16
2022-11-29T08:02:11.667Z,98318.84
2022-11-29T08:04:44.385Z,98329.50
2022-11-29T08:07:11.787Z,98323.78
2022-11-29T08:09:38.694Z,98326.28
2022-11-29T08:12:05.863Z,98330.28
2022-11-29T08:14:33.446Z,98333.63
2022-11-29T08:17:00.413Z,98334.75
2022-11-29T08:19:27.402Z,98322.09
2022-11-29T08:21:54.341Z,98332.97
2022-11-29T08:24:21.298Z,98333.97
2022-11-29T08:26:48.247Z,98339.34
2022-11-29T08:29:15.451Z,98340.94
2022-11-29T08:31:42.636Z,98332.03
2022-11-29T08:34:10.724Z,98332.03
2022-11-29T08:36:38.077Z,98333.63
2022-11-29T08:39:09.390Z,98327.91
2022-11-29T08:41:36.690Z,98339.38
2022-11-29T08:44:05.967Z,98342.28
2022-11-29T08:46:51.764Z,98351.63
2022-11-29T08:49:18.646Z,98342.91
2022-11-29T08:51:45.518Z,98335.78
2022-11-29T08:54:12.735Z,98327.16
2022-11-29T08:59:27.184Z,98330.84
2022-11-29T09:01:54.222Z,98331.44
2022-11-29T09:04:21.197Z,98333.50
2022-11-29T09:06:49.773Z,98332.38
2022-11-29T09:09:17.407Z,98320.88
2022-11-29T09:11:48.215Z,98327.72
2022-11-29T09:14:17.843Z,98322.25
2022-11-29T09:16:44.807Z,98326.63
2022-11-29T09:19:14.111Z,98319.00
2022-11-29T09:21:41.146Z,98313.53
2022-11-29T09:24:09.417Z,98313.00
2022-11-29T09:26:38.015Z,98312.88
2022-11-29T09:29:06.748Z,98306.47
2022-11-29T09:31:35.079Z,98304.16
2022-11-29T09:34:02.052Z,98306.59
2022-11-29T09:36:30.382Z,98288.75
2022-11-29T09:38:58.232Z,98289.69
2022-11-29T09:42:02.718Z,98287.34
2022-11-29T09:44:51.327Z,98277.78
2022-11-29T10:18:17.267Z,98264.47
2022-11-29T10:20:48.798Z,98262.34
2022-11-29T10:23:26.764Z,98270.34
2022-11-29T10:25:55.649Z,98269.88
2022-11-29T10:28:32.659Z,98269.50
2022-11-29T10:31:14.867Z,98271.59
2022-11-29T10:33:42.513Z,98277.03
2022-11-29T10:36:46.759Z,98277.34
2022-11-29T10:39:46.733Z,98280.31
2022-11-29T10:42:43.535Z,98282.25
2022-11-29T10:45:34.067Z,98284.03
2022-11-29T10:48:11.564Z,98289.78
2022-11-29T10:50:41.959Z,98284.75
2022-11-29T10:53:16.013Z,98290.19
2022-11-29T10:56:00.544Z,98285.50
2022-11-29T10:58:29.894Z,98293.84
2022-11-29T11:00:59.946Z,98282.59
2022-11-29T11:03:27.524Z,98285.09
2022-11-29T11:05:57.416Z,98280.84
2022-11-29T11:08:26.426Z,98281.88
2022-11-29T11:11:01.191Z,98283.03
2022-11-29T11:13:32.191Z,98272.72
2022-11-29T11:16:09.032Z,98264.06
2022-11-29T11:18:37.597Z,98264.19
2022-11-29T11:21:09.414Z,98272.94
2022-11-29T11:23:42.709Z,98270.63
2022-11-29T11:26:13.288Z,98272.22
2022-11-29T11:29:03.137Z,98264.31
2022-11-29T11:31:36.072Z,98262.53
2022-11-29T11:34:45.042Z,98256.19
2022-11-29T11:37:14.893Z,98253.06
2022-11-29T11:39:43.484Z,98250.88
2022-11-29T11:42:35.438Z,98249.00
2022-11-29T11:45:12.141Z,98243.47
2022-11-29T11:47:44.991Z,98246.06
2022-11-29T11:50:17.928Z,98240.97
2022-11-29T11:52:50.762Z,98251.50
2022-11-29T11:55:28.203Z,98249.53
2022-11-29T11:58:07.691Z,98245.88
2022-11-29T12:01:14.684Z,98260.38
2022-11-29T12:03:51.077Z,98262.13
2022-11-29T12:06:25.601Z,98269.84
2022-11-29T12:08:57.738Z,98278.50
2022-11-29T12:11:26.973Z,98272.34
2022-11-29T12:13:59.282Z,98273.91
2022-11-29T12:16:34.275Z,98277.03
2022-11-29T12:19:21.754Z,98270.66
2022-11-29T12:21:56.057Z,98269.41
2022-11-29T12:24:35.695Z,98268.38
2022-11-29T12:27:05.416Z,98266.28
2022-11-29T12:29:34.806Z,98268.91
2022-11-29T12:32:08.383Z,98269.72
2022-11-29T12:34:43.887Z,98267.22
2022-11-29T12:37:34.583Z,98272.63
2022-11-29T12:40:13.425Z,98284.94
2022-11-29T12:43:02.010Z,98288.06
2022-11-29T12:45:45.606Z,98292.34
2022-11-29T12:48:18.593Z,98296.41
2022-11-29T12:51:04.374Z,98294.72
2022-11-29T12:53:48.848Z,98305.88
2022-11-29T12:56:25.340Z,98306.28
2022-11-29T12:59:12.473Z,98301.69
2022-11-29T13:01:48.525Z,98308.66
2022-11-29T13:04:33.839Z,98310.97
2022-11-29T13:07:21.999Z,98301.34
2022-11-29T13:10:18.377Z,98305.63
2022-11-29T13:13:17.913Z,98311.16
2022-11-29T13:16:25.096Z,98315.31
2022-11-29T13:19:08.182Z,98311.78
2022-11-29T13:21:46.544Z,98311.66
2022-11-29T13:24:25.962Z,98309.56
2022-11-29T13:26:54.249Z,98312.56
2022-11-29T13:29:21.749Z,98304.03
2022-11-29T13:31:50.062Z,98310.59
2022-11-29T13:34:21.791Z,98309.03
2022-11-29T13:36:55.843Z,98300.88
2022-11-29T13:39:28.824Z,98306.94
2022-11-29T13:42:16.369Z,98308.69
2022-11-29T13:44:53.095Z,98296.50
2022-11-29T13:47:20.514Z,98293.31
2022-11-29T13:50:02.690Z,98299.28
2022-11-29T13:52:46.627Z,98297.06
2022-11-29T13:55:14.606Z,98308.22
2022-11-29T14:00:45.078Z,98305.66
2022-11-29T14:03:24.318Z,98301.38
2022-11-29T14:05:54.316Z,98301.88
2022-11-29T14:09:02.397Z,98315.09
2022-11-29T14:11:32.793Z,98316.78
2022-11-29T14:14:07.743Z,98311.81
2022-11-29T14:16:43.855Z,98314.00
2022-11-29T14:19:10.687Z,98313.63
2022-11-29T14:21:59.356Z,98312.59
2022-11-29T14:24:32.530Z,98326.38
2022-11-29T14:27:19.584Z,98322.59
2022-11-29T14:29:55.224Z,98316.66
2022-11-29T14:32:31.453Z,98324.13
2022-11-29T14:35:10.125Z,98325.69
2022-11-29T14:37:42.671Z,98324.75
2022-11-29T14:40:35.554Z,98324.03
2022-11-29T14:43:14.838Z,98319.50
2022-11-29T14:45:41.951Z,98323.06
2022-11-29T14:48:30.573Z,98322.13
2022-11-29T14:51:12.862Z,98320.22
2022-11-29T14:53:42.018Z,98320.97
2022-11-29T14:56:39.103Z,98325.44
2022-11-29T14:59:43.907Z,98321.03
2022-11-29T15:02:35.092Z,98315.47
2022-11-29T15:05:32.777Z,98311.88
2022-11-29T15:08:09.683Z,98315.59
2022-11-29T15:10:41.302Z,98320.81
2022-11-29T15:13:12.998Z,98317.38
2022-11-29T15:15:42.765Z,98322.81
2022-11-29T15:18:12.201Z,98314.25
2022-11-29T15:20:44.878Z,98321.38
2022-11-29T15:23:18.581Z,98317.81
2022-11-29T15:25:53.681Z,98318.41
2022-11-29T15:28:23.989Z,98318.03
2022-11-29T15:31:11.306Z,98315.66
2022-11-29T15:33:43.555Z,98316.97
2022-11-29T15:36:24.401Z,98319.22
2022-11-29T15:38:54.011Z,98322.75
2022-11-29T15:41:32.275Z,98322.50
2022-11-29T15:44:02.383Z,98319.91
2022-11-29T15:46:31.808Z,98316.13
2022-11-29T15:49:24.483Z,98320.34
2022-11-29T15:52:01.984Z,98319.63
2022-11-29T15:54:42.341Z,98326.28
2022-11-29T15:57:15.996Z,98334.94
2022-11-29T15:59:51.733Z,98334.84
2022-11-29T16:02:23.265Z,98349.34
2022-11-29T16:04:54.607Z,98347.47
2022-11-29T16:07:24.421Z,98358.63
2022-11-29T16:10:02.049Z,98366.00
2022-11-29T16:12:29.099Z,98361.03
2022-11-29T16:14:58.234Z,98361.72
2022-11-29T16:17:32.082Z,98361.72
2022-11-29T16:20:14.128Z,98371.00
2022-11-29T16:22:41.096Z,98370.28
2022-11-29T16:25:19.256Z,98364.09
2022-11-29T16:27:46.836Z,98357.34
2022-11-29T16:30:22.823Z,98362.69
2022-11-29T16:33:00.912Z,98357.34
2022-11-29T16:35:30.337Z,98362.06
2022-11-29T16:37:57.879Z,98375.28
2022-11-29T16:40:27.662Z,98384.06
2022-11-29T16:43:03.586Z,98388.94
2022-11-29T16:45:38.566Z,98384.13
2022-11-29T16:48:14.666Z,98381.38
2022-11-29T16:50:41.706Z,98382.66
2022-11-29T16:53:37.668Z,98383.25
2022-11-29T16:56:05.309Z,98387.19
2022-11-29T16:58:35.468Z,98386.81
2022-11-29T17:01:21.948Z,98385.88
2022-11-29T17:03:48.989Z,98383.53
2022-11-29T17:06:18.685Z,98391.63
2022-11-29T17:08:45.959Z,98388.53
2022-11-29T17:11:13.024Z,98392.88
2022-11-29T17:13:40.082Z,98392.84
2022-11-29T17:16:12.919Z,98391.38
2022-11-29T17:18:41.126Z,98384.72
2022-11-29T17:21:19.106Z,98383.03
2022-11-29T17:23:47.193Z,98384.72
2022-11-29T17:26:15.581Z,98385.03
2022-11-29T17:28:44.169Z,98386.00
2022-11-29T17:31:12.071Z,98385.03
2022-11-29T17:33:39.320Z,98386.72
2022-11-29T17:36:11.997Z,98385.16
2022-11-29T17:38:39.054Z,98391.09
2022-11-29T17:41:10.573Z,98387.66
2022-11-29T17:43:37.997Z,98384.34
2022-11-29T17:46:13.411Z,98385.28
2022-11-29T17:48:41.178Z,98384.56
2022-11-29T17:51:22.793Z,98384.06
2022-11-29T17:53:56.213Z,98392.00
2022-11-29T17:56:25.431Z,98400.19
2022-11-29T17:58:58.024Z,98403.72
2022-11-29T18:01:28.003Z,98410.22
2022-11-29T18:03:57.177Z,98412.13
2022-11-29T18:06:35.835Z,98405.38
2022-11-29T18:09:04.784Z,98414.13
2022-11-29T18:11:45.322Z,98409.41
2022-11-29T18:14:20.043Z,98415.31
2022-11-29T18:16:47.018Z,98418.84
2022-11-29T18:19:16.771Z,98419.06
2022-11-29T18:21:43.933Z,98412.19
2022-11-29T18:24:11.282Z,98411.81
2022-11-29T18:26:39.387Z,98417.94
2022-11-29T18:29:07.165Z,98415.69
2022-11-29T18:31:36.482Z,98416.50
2022-11-29T18:34:11.670Z,98410.66
2022-11-29T18:36:47.321Z,98410.28
2022-11-29T18:39:16.821Z,98407.03
2022-11-29T18:41:46.140Z,98400.44
2022-11-29T18:44:15.368Z,98400.34
2022-11-29T18:46:43.937Z,98407.88
2022-11-29T18:49:17.335Z,98420.28
2022-11-29T18:51:46.158Z,98413.41
2022-11-29T18:54:15.167Z,98417.50
2022-11-29T18:56:43.053Z,98416.69
2022-11-29T18:59:13.695Z,98402.38
2022-11-29T19:01:42.852Z,98417.41
2022-11-29T19:04:13.050Z,98408.38
2022-11-29T19:06:40.604Z,98413.97
2022-11-29T19:09:15.678Z,98410.44
2022-11-29T19:11:43.042Z,98420.44
2022-11-29T19:14:12.764Z,98415.06
2022-11-29T19:16:42.955Z,98407.53
2022-11-29T19:19:10.036Z,98413.25
2022-11-29T19:21:37.138Z,98408.13
2022-11-29T19:24:07.829Z,98409.50
2022-11-29T19:26:34.890Z,98417.31
2022-11-29T19:29:02.164Z,98413.22
2022-11-29T19:31:29.374Z,98419.56
2022-11-29T19:33:57.560Z,98411.16
2022-11-29T19:36:30.385Z,98407.19
2022-11-29T19:39:00.321Z,98418.09
2022-11-29T19:41:31.158Z,98418.00
2022-11-29T19:44:00.798Z,98421.56
2022-11-29T19:46:36.974Z,98432.81
2022-11-29T19:49:06.122Z,98431.09
2022-11-29T19:51:33.846Z,98435.69
2022-11-29T19:54:04.091Z,98437.66
2022-11-29T19:56:32.503Z,98430.91
2022-11-29T19:59:00.127Z,98435.16
2022-11-29T20:01:37.702Z,98426.41
2022-11-29T20:04:06.703Z,98422.97
2022-11-29T20:06:33.901Z,98432.66
2022-11-29T20:09:00.903Z,98429.41
2022-11-29T20:11:27.905Z,98424.31
2022-11-29T20:13:57.360Z,98441.72
2022-11-29T20:16:25.201Z,98443.47
2022-11-29T20:18:53.067Z,98440.97
2022-11-29T20:21:24.604Z,98432.19
2022-11-29T20:24:00.227Z,98433.91
2022-11-29T20:26:28.632Z,98431.69
2022-11-29T20:28:55.654Z,98433.53
2022-11-29T20:31:23.336Z,98436.03
2022-11-29T20:33:52.895Z,98434.47
2022-11-29T20:36:32.028Z,98429.66
2022-11-29T20:39:32.028Z,98424.34
2022-11-29T20:42:28.553Z,98424.75
2022-11-29T20:44:58.155Z,98424.97
2022-11-29T20:47:28.142Z,98425.03
2022-11-29T20:49:55.295Z,98420.03
2022-11-29T20:52:28.156Z,98412.41
2022-11-29T20:54:55.113Z,98424.88
2022-11-29T20:57:22.049Z,98417.19
2022-11-29T20:59:49.086Z,98426.03
2022-11-29T21:02:16.042Z,98434.97
2022-11-29T21:04:42.946Z,98429.75
2022-11-29T21:07:09.904Z,98428.28
2022-11-29T21:09:36.798Z,98432.75
2022-11-29T21:12:04.298Z,98433.69
2022-11-29T21:14:31.645Z,98427.00
2022-11-29T21:16:58.911Z,98434.06
2022-11-29T21:19:26.267Z,98428.22
2022-11-29T21:22:27.112Z,98428.38
2022-11-29T21:25:08.774Z,98441.50
2022-11-29T21:27:36.476Z,98447.47
2022-11-29T21:30:19.209Z,98449.59
2022-11-29T21:32:46.752Z,98454.22
2022-11-29T21:35:14.471Z,98446.34
2022-11-29T21:37:42.781Z,98454.16
2022-11-29T21:40:12.418Z,98450.25
2022-11-29T21:42:39.636Z,98455.09
2022-11-29T21:45:14.618Z,98455.16
2022-11-29T21:47:43.096Z,98450.16
2022-11-29T21:50:11.107Z,98442.81
2022-11-29T21:52:37.953Z,98449.16
2022-11-29T21:55:05.651Z,98448.22
2022-11-29T21:57:32.555Z,98460.47
2022-11-29T21:59:59.496Z,98443.97
2022-11-29T22:02:26.537Z,98449.06
2022-11-29T22:04:53.515Z,98451.00
2022-11-29T22:07:20.650Z,98450.25
2022-11-29T22:09:47.695Z,98451.09
2022-11-29T22:12:33.227Z,98447.84
2022-11-29T22:15:00.926Z,98455.00
2022-11-29T22:17:27.808Z,98458.44
2022-11-29T22:19:54.741Z,98460.28
2022-11-29T22:22:21.604Z,98459.16
2022-11-29T22:24:49.415Z,98463.75
2022-11-29T22:27:18.547Z,98467.91
2022-11-29T22:29:45.574Z,98472.28
2022-11-29T22:32:13.729Z,98472.28
2022-11-29T22:34:40.612Z,98469.56
2022-11-29T22:37:07.686Z,98468.72
2022-11-29T22:39:34.564Z,98466.97
2022-11-29T22:42:01.411Z,98457.59
2022-11-29T22:44:28.501Z,98449.97
2022-11-29T22:46:55.473Z,98453.50
2022-11-29T22:49:22.430Z,98456.22
2022-11-29T22:51:49.341Z,98449.34
2022-11-29T22:54:16.907Z,98451.19
2022-11-29T22:56:45.153Z,98449.03
2022-11-29T22:59:12.086Z,98451.00
2022-11-29T23:01:40.798Z,98452.69
2022-11-29T23:04:11.290Z,98456.00
2022-11-29T23:06:41.731Z,98454.53
2022-11-29T23:09:16.713Z,98461.56
2022-11-29T23:11:45.928Z,98453.78
2022-11-29T23:14:13.305Z,98446.25
2022-11-29T23:16:41.883Z,98451.44
2022-11-29T23:19:09.228Z,98458.41
2022-11-29T23:21:38.820Z,98458.41
2022-11-29T23:24:06.215Z,98453.31
2022-11-29T23:26:41.336Z,98450.81
2022-11-29T23:29:11.765Z,98450.91
2022-11-29T23:31:39.037Z,98447.38
2022-11-29T23:34:05.935Z,98453.50
2022-11-29T23:36:32.913Z,98451.91
2022-11-29T23:39:00.594Z,98454.41
2022-11-29T23:41:27.539Z,98459.63
2022-11-29T23:43:54.480Z,98451.75
2022-11-29T23:46:24.312Z,98458.97
2022-11-29T23:48:52.261Z,98455.63
2022-11-29T23:51:20.360Z,98449.59
2022-11-29T23:53:52.771Z,98452.13
2022-11-29T23:56:20.791Z,98448.03
2022-11-29T23:58:48.621Z,98453.94
